Terminal Aerodrome Forecast
Issued by NWS Glasgow, MT

Home | Current Version | Previous Version | Text Only | Print | Product List | Glossary On
Versions: 1 2 3 4 5 6 7 8 9 10 11 12
000
FTUS45 KGGW 062300
TAFGGW
TAF
KGGW 062323Z 0700/0724 33014KT P6SM SCT160
     FM070300 32009KT P6SM SCT190
     FM070600 30007KT P6SM BKN170=

USA.gov is the U.S. government's official web portal to all federal, state and local government web resources and services.